Flight Track Log - Related Links

Times and Time Zones

All times are in EDT time to prevent confusion due to time zone crossing. See the N508QS flight status page for this flight to view local times or setup timezone preferences in your user account.

Time Position Orientation Groundspeed Altitude Reporting Facility
EDT Latitude Longitude Course Direction KTS MPH feet Rate Location/Type
Tue 01:40:07 PM 39.1833 -76.7333 151° Southeast 205 236 2,500  Level Potomac TRACON
Tue 01:42:23 PM 39.1064 -76.6775 151° Southeast 147 169 6,400 2,102 Climbing Washington Center
Tue 01:43:24 PM 39.1178 -76.5708 82° East 222 255 9,400 2,471 Climbing Washington Center
Tue 01:44:22 PM 39.1289 -76.4772 81° East 282 325 11,300 2,949 Climbing Washington Center
Tue 01:45:22 PM 39.1425 -76.3036 84° East 345 397 15,200 2,311 Climbing Washington Center
Tue 01:46:24 PM 39.1911 -76.1728 64° Northeast 390 449 16,000 541 Climbing Washington Center
Tue 01:47:24 PM 39.2814 -76.0769 39° Northeast 391 450 16,300 508 Climbing Washington Center
Tue 01:48:22 PM 39.3753 -75.9861 37° Northeast 391 450 17,000 321 Climbing Washington Center
Tue 01:49:35 PM 39.4839 -75.8900 34° Northeast 420 483 17,000 -580 Level Washington Center
Tue 01:51:18 PM 39.6667 -75.7167 36° Northeast 418 481 15,300 -736 Descending Philadelphia TRACON
Tue 01:52:18 PM 39.7500 -75.6333 38° Northeast 408 470 15,000 -238 Descending Philadelphia TRACON
Tue 01:53:24 PM 39.8500 -75.5500 33° Northeast 399 459 14,800 -810 Descending Philadelphia TRACON
Tue 01:54:24 PM 39.9500 -75.4667 33° Northeast 399 459 13,300 -900 Descending Philadelphia TRACON
Tue 01:55:24 PM 40.0333 -75.3833 37° Northeast 389 448 13,000 -150 Descending Philadelphia TRACON
Tue 01:56:24 PM 40.1167 -75.3000 37° Northeast 345 397 13,000 -165 Level Philadelphia TRACON
Tue 01:57:13 PM 40.1667 -75.2500 37° Northeast 300 345 12,700 -1,169 Descending Philadelphia TRACON
Tue 01:58:58 PM 40.3000 -75.1333 34° Northeast 306 352 10,000 -1,636 Descending New York TRACON
Tue 01:59:58 PM 40.3500 -75.0667 45° Northeast 300 345 8,200 -1,500 Descending New York TRACON
Tue 02:00:58 PM 40.4167 -74.9833 44° Northeast 297 342 7,000 -1,050 Descending New York TRACON
Tue 02:01:58 PM 40.4667 -74.9167 45° Northeast 296 341 6,100 -1,238 Descending New York TRACON
Tue 02:03:04 PM 40.5167 -74.8333 52° Northeast 286 329 4,400 -1,000 Descending New York TRACON
Tue 02:03:58 PM 40.5667 -74.7667 45° Northeast 268 308 4,100 -150 Descending New York TRACON
Tue 02:05:04 PM 40.6333 -74.7000 37° Northeast 264 304 4,100  Level New York TRACON
Tue 02:05:58 PM 40.7000 -74.6500 30° Northeast 277 319 4,100  Level New York TRACON
Tue 02:06:58 PM 40.7500 -74.5833 45° Northeast 287 330 4,100  Level New York TRACON
Tue 02:08:04 PM 40.8167 -74.5000 43° Northeast 284 327 4,100 -238 Level New York TRACON
Tue 02:09:04 PM 40.8667 -74.4167 52° Northeast 283 326 3,600 -526 Descending New York TRACON
Tue 02:09:58 PM 40.9167 -74.3500 45° Northeast 285 328 3,100 -250 Descending New York TRACON
Tue 02:11:04 PM 40.9333 -74.2500 78° East 277 319 3,100 -381 Level New York TRACON
Tue 02:12:04 PM 40.9500 -74.1667 75° East 230 265 2,300 -500 Descending New York TRACON
Tue 02:13:04 PM 40.9833 -74.1000 56° Northeast 209 241 2,100 -100 Descending New York TRACON
Tue 02:14:04 PM 40.9667 -74.0500 114° Southeast 182 209 2,100 -400 Level New York TRACON
Tue 02:15:04 PM 40.9167 -74.0500 180° South 146 168 1,300 -800 Descending New York TRACON

Login

Don't have an account? Register now (free) for customized features, flight alerts, and more!